Troy, NY

3:22 AM EST on February 27, 2015 (GMT -0500)
Brunswick, NY | Change Station
CLOSE
Current Station
Personal Weather Station
Location: Troy, NY
Elevation: 853 ft
Nearby Weather Stations

Elev 853 ft 42.77 °N, 73.58 °W | Updated 7 minutes ago

Overcast
Overcast
5.1 °F
Feels Like -6 °F
N
6.0
Wind Variable Wind from North
Gusts 8.0 mph

Today
High -- | Low -- °F
--% Chance of Precip.
Yesterday
High -- | Low -- °F
Precip. -- in
6:33 AM 5:41 PM
Waxing Gibbous, 66% visible
Pressure 30.26 in
Visibility 10.0 miles
Clouds Scattered Clouds 2200 ft
Scattered Clouds 11000 ft
Windchill -6 °F
Dew Point -3 °F
Humidity 69%
Rainfall 0.00 in
Snow Depth Not available.
UV 0 out of 12
Pollen .30 out of 12
Air Quality Not available.
Flu Activity Not available.
SPECI KALB 270816Z 02003KT 10SM SCT022 SCT110 M13/M21 A3026 RMK AO2 T11331206

More Conditions Fewer Conditions

Pressure 30.26 in
Visibility 10.0 miles
Clouds Scattered Clouds 2200 ft
Scattered Clouds 11000 ft
Windchill -6 °F
Dew Point -3 °F
Humidity 69%
Rainfall 0.00 in
Snow Depth Not available.
UV 0 out of 12
Pollen .30 out of 12
Air Quality Not available.
Flu Activity Not available.
SPECI KALB 270816Z 02003KT 10SM SCT022 SCT110 M13/M21 A3026 RMK AO2 T11331206

More Conditions Fewer Conditions

10-Day Weather Forecast

Almanac

Astronomy

Feb. 27, 2015 Rise Set
Actual Time
Civil Twilight
Nautical Twilight
Astronomical Twilight
Moon
Length of Visible Light
Length of Day
Tomorrow will be .
, % of the Moon is Illuminated

Today's Extremes

State Highs State Lows

Community

WunderPhotos

Upload Photos

1,800,649 photos uploaded!

WunderBlogs® & News

Nearby

Air Quality

  Air Quality AQ Index Pollutant
Not available.

Snow Depth

Station Depth Elevation

Earthquake Activity

City Distance Mag. Time & Date
Minimum magnitude displayed is 2.5.

Coastal Water Temperatures

Place Temperature

Nearby Weather Stations